Faust — SLKQ — position and weather

sailwx.info

Track history (hours):
 
Tides and Currents Weather Stations Pressure Air Temp Water Temp Dewpoint Dewpoint Depression Visibility Wind Speed Wind Dir Waves Ship Positions

Faust

Last reported at 2015-Mar-29 15:31 UTC. Time now 2015-Mar-29 16:07 UTC.
Position N 40°40' W 074°05'.

Length 227.8 m; beam 32.3 m; draft 9.5 m.

Type: Cargo ship. MMSI: 266260000.

Date/timePositionNaut miles runAvg speedWind from/ knotsBaromVisibWave heightAir tempDewpointWater temp
2015-Mar-29 15:31N 40°40' W 074°05'0 0.0
2015-Mar-29 14:31N 40°40' W 074°05'0 0.0
2015-Mar-29 13:31N 40°40' W 074°05'0 0.0
2015-Mar-29 12:31N 40°40' W 074°05'0 0.0
2015-Mar-29 11:33N 40°40' W 074°05'0 0.0
2015-Mar-29 10:33N 40°40' W 074°05'0 0.0
2015-Mar-29 09:33N 40°40' W 074°05'3 3.4
2015-Mar-29 08:33N 40°37' W 074°03'1111.3
2015-Mar-29 07:34N 40°29' W 073°53'7 7.4
2015-Mar-29 06:33N 40°27' W 073°44'17 8.1
2015-Mar-29 04:25N 40°29' W 073°21'17 8.8
2015-Mar-29 02:30N 40°30' W 072°59'9 9.2
2015-Mar-29 01:34N 40°30' W 072°47'9 9.3
2015-Mar-29 00:34N 40°30' W 072°35'1010.0
2015-Mar-28 23:34N 40°30' W 072°22'1010.2
2015-Mar-28 22:34N 40°31' W 072°09'1010.3
2015-Mar-28 21:34N 40°31' W 071°55'1010.1
2015-Mar-28 20:34N 40°31' W 071°42'1212.3
2015-Mar-28 19:34N 40°32' W 071°25'  
2015-Mar-21 06:33N 50°05' W 003°31'1515.2
2015-Mar-21 05:33N 50°09' W 003°08'1716.6
2015-Mar-21 04:33N 50°14' W 002°43'3919.6
2015-Mar-21 02:33N 50°25' W 001°45'2120.7
2015-Mar-21 01:33N 50°31' W 001°13'1414.3
2015-Mar-21 00:33N 50°41' W 000°58'1212.1
2015-Mar-20 23:33N 50°46' W 001°16'7 7.5
2015-Mar-20 22:33N 50°52' W 001°23'1 1.1
2015-Mar-20 21:31N 50°53' W 001°24'0 0.0
2015-Mar-20 20:31N 50°53' W 001°24'0 0.0
2015-Mar-20 19:31N 50°53' W 001°24'0 0.0
2015-Mar-20 18:31N 50°53' W 001°24'0 0.0
2015-Mar-20 17:31N 50°53' W 001°24'0 0.0
2015-Mar-20 16:31N 50°53' W 001°24'0 0.0
2015-Mar-20 15:31N 50°53' W 001°24'0 0.0
2015-Mar-20 14:31N 50°53' W 001°24'0 0.0
2015-Mar-20 13:31N 50°53' W 001°24'0 0.0
2015-Mar-20 12:31N 50°53' W 001°24'0 0.0
2015-Mar-20 11:31N 50°53' W 001°24'0 0.0
2015-Mar-20 10:31N 50°53' W 001°24'0 0.0
2015-Mar-20 09:31N 50°53' W 001°24'0 0.0
2015-Mar-20 08:31N 50°53' W 001°24'0 0.0
2015-Mar-20 07:33N 50°53' W 001°24'6 6.0
2015-Mar-20 06:33N 50°49' W 001°18'1111.0
2015-Mar-20 05:33N 50°44' W 001°02'10 9.9
2015-Mar-20 04:33N 50°38' W 000°49'1010.3
2015-Mar-20 03:33N 50°35' W 000°34'1312.8
2015-Mar-20 02:33N 50°33' W 000°14'1212.2
2015-Mar-20 01:32N 50°34' E 000°06'1212.4
2015-Mar-20 00:33N 50°37' E 000°24'1312.6
2015-Mar-19 23:33N 50°42' E 000°42'1312.8
2015-Mar-19 22:33N 50°49' E 000°59'1212.2
2015-Mar-19 21:34N 50°57' E 001°14'1211.6
2015-Mar-19 20:33N 51°04' E 001°28'1313.3
2015-Mar-19 19:33N 51°12' E 001°45'1313.1
2015-Mar-19 18:33N 51°23' E 001°57'1110.9
2015-Mar-19 17:33N 51°21' E 002°14'1313.3
2015-Mar-19 16:33N 51°23' E 002°36'1212.3
2015-Mar-19 15:34N 51°25' E 002°55'  
Track history (hours):
 
Tides and Currents Weather Stations Pressure Air Temp Water Temp Dewpoint Dewpoint Depression Visibility Wind Speed Wind Dir Waves Ship Positions

Faust

Last reported at 2015-Mar-29 15:31 UTC. Time now 2015-Mar-29 16:07 UTC.
Position N 40°40' W 074°05'.

Length 227.8 m; beam 32.3 m; draft 9.5 m.

Type: Cargo ship. MMSI: 266260000.

Date/timePositionNaut miles runAvg speedWind from/ knotsBaromVisibWave heightAir tempDewpointWater temp
2015-Mar-29 15:31N 40°40' W 074°05'0 0.0
2015-Mar-29 14:31N 40°40' W 074°05'0 0.0
2015-Mar-29 13:31N 40°40' W 074°05'0 0.0
2015-Mar-29 12:31N 40°40' W 074°05'0 0.0
2015-Mar-29 11:33N 40°40' W 074°05'0 0.0
2015-Mar-29 10:33N 40°40' W 074°05'0 0.0
2015-Mar-29 09:33N 40°40' W 074°05'3 3.4
2015-Mar-29 08:33N 40°37' W 074°03'1111.3
2015-Mar-29 07:34N 40°29' W 073°53'7 7.4
2015-Mar-29 06:33N 40°27' W 073°44'17 8.1
2015-Mar-29 04:25N 40°29' W 073°21'17 8.8
2015-Mar-29 02:30N 40°30' W 072°59'9 9.2
2015-Mar-29 01:34N 40°30' W 072°47'9 9.3
2015-Mar-29 00:34N 40°30' W 072°35'1010.0
2015-Mar-28 23:34N 40°30' W 072°22'1010.2
2015-Mar-28 22:34N 40°31' W 072°09'1010.3
2015-Mar-28 21:34N 40°31' W 071°55'1010.1
2015-Mar-28 20:34N 40°31' W 071°42'1212.3
2015-Mar-28 19:34N 40°32' W 071°25'  
2015-Mar-21 06:33N 50°05' W 003°31'1515.2
2015-Mar-21 05:33N 50°09' W 003°08'1716.6
2015-Mar-21 04:33N 50°14' W 002°43'3919.6
2015-Mar-21 02:33N 50°25' W 001°45'2120.7
2015-Mar-21 01:33N 50°31' W 001°13'1414.3
2015-Mar-21 00:33N 50°41' W 000°58'1212.1
2015-Mar-20 23:33N 50°46' W 001°16'7 7.5
2015-Mar-20 22:33N 50°52' W 001°23'1 1.1
2015-Mar-20 21:31N 50°53' W 001°24'0 0.0
2015-Mar-20 20:31N 50°53' W 001°24'0 0.0
2015-Mar-20 19:31N 50°53' W 001°24'0 0.0
2015-Mar-20 18:31N 50°53' W 001°24'0 0.0
2015-Mar-20 17:31N 50°53' W 001°24'0 0.0
2015-Mar-20 16:31N 50°53' W 001°24'0 0.0
2015-Mar-20 15:31N 50°53' W 001°24'0 0.0
2015-Mar-20 14:31N 50°53' W 001°24'0 0.0
2015-Mar-20 13:31N 50°53' W 001°24'0 0.0
2015-Mar-20 12:31N 50°53' W 001°24'0 0.0
2015-Mar-20 11:31N 50°53' W 001°24'0 0.0
2015-Mar-20 10:31N 50°53' W 001°24'0 0.0
2015-Mar-20 09:31N 50°53' W 001°24'0 0.0
2015-Mar-20 08:31N 50°53' W 001°24'0 0.0
2015-Mar-20 07:33N 50°53' W 001°24'6 6.0
2015-Mar-20 06:33N 50°49' W 001°18'1111.0
2015-Mar-20 05:33N 50°44' W 001°02'10 9.9
2015-Mar-20 04:33N 50°38' W 000°49'1010.3
2015-Mar-20 03:33N 50°35' W 000°34'1312.8
2015-Mar-20 02:33N 50°33' W 000°14'1212.2
2015-Mar-20 01:32N 50°34' E 000°06'1212.4
2015-Mar-20 00:33N 50°37' E 000°24'1312.6
2015-Mar-19 23:33N 50°42' E 000°42'1312.8
2015-Mar-19 22:33N 50°49' E 000°59'1212.2
2015-Mar-19 21:34N 50°57' E 001°14'1211.6
2015-Mar-19 20:33N 51°04' E 001°28'1313.3
2015-Mar-19 19:33N 51°12' E 001°45'1313.1
2015-Mar-19 18:33N 51°23' E 001°57'1110.9
2015-Mar-19 17:33N 51°21' E 002°14'1313.3
2015-Mar-19 16:33N 51°23' E 002°36'1212.3
2015-Mar-19 15:34N 51°25' E 002°55'  

Dump ship's entire track history